Boutte, LA (70039)

12:40 AM CST on December 18, 2014 (GMT -0600)
Kirk Street | Change Station
CLOSE
Current Station
Personal Weather Station
Location: Paradis, LA
Elevation: 10 ft
Nearby Weather Stations

Elev 10 ft 29.88 °N, 90.43 °W | Updated 6 seconds ago

Mostly Cloudy
Mostly Cloudy
49.1 °F
Feels Like 49 °F
N
0.0
Wind Variable Wind from NNW
Gusts 0.0 mph

Today
High -- | Low -- °F
--% Chance of Precip.
Yesterday
High -- | Low -- °F
Precip. -- in
6:51 AM 5:05 PM
Waning Crescent, 16% visible
Pressure 30.18 in
Visibility 10.0 miles
Clouds Mostly Cloudy 25000 ft
Windchill 49 °F
Dew Point 41 °F
Humidity 73%
Rainfall 0.00 in
Snow Depth Not available.
UV 0 out of 12
Pollen 4.90 out of 12
Air Quality Not available.
Flu Activity Not available.
METAR KMSY 180553Z 06003KT 10SM BKN250 11/05 A3017 RMK AO2 SLP220 T01110050 10128 20100 401500078 58010

More Conditions Fewer Conditions

Pressure 30.18 in
Visibility 10.0 miles
Clouds Mostly Cloudy 25000 ft
Windchill 49 °F
Dew Point 41 °F
Humidity 73%
Rainfall 0.00 in
Snow Depth Not available.
UV 0 out of 12
Pollen 4.90 out of 12
Air Quality Not available.
Flu Activity Not available.
METAR KMSY 180553Z 06003KT 10SM BKN250 11/05 A3017 RMK AO2 SLP220 T01110050 10128 20100 401500078 58010

More Conditions Fewer Conditions

10-Day Weather Forecast

Almanac

Astronomy

Dec. 18, 2014 Rise Set
Actual Time
Civil Twilight
Nautical Twilight
Astronomical Twilight
Moon
Length of Visible Light
Length of Day
Tomorrow will be .
, % of the Moon is Illuminated

Today's Extremes

State Highs State Lows

Community

WunderPhotos

Upload Photos

1,778,897 photos uploaded!

WunderBlogs® & News

Nearby

Air Quality

  Air Quality AQ Index Pollutant
Not available.

Snow Depth

Station Depth Elevation

Earthquake Activity

City Distance Mag. Time & Date
Minimum magnitude displayed is 2.5.

Coastal Water Temperatures

Place Temperature

Nearby Weather Stations